Terminal Aerodrome Forecast
Issued by NWS

Home | Current Version | Previous Version | Text Only | Print | Product List | Glossary On
Versions: 1 2 3 4 5 6 7 8 9 10 11 12 13 14 15 16 17 18 19 20 21 22 23 24 25
000
FTUS43 KGRR 240300 AAA
TAFAZO
TAF AMD
KAZO 240306Z 2403/2424 14009KT 4SM RA BR SCT008 OVC012
     FM240430 15011KT 2SM RA BR OVC006
     FM240600 19010KT 1 1/2SM -RA BR OVC004
     FM241800 21015G25KT 2SM -DZ BR OVC009=

USA.gov is the U.S. government's official web portal to all federal, state and local government web resources and services.